Time,TemperatureF,DewpointF,PressureIn,WindDirection,WindDirectionDegrees,WindSpeedMPH,WindSpeedGustMPH,Humidity,HourlyPrecipIn,Conditions,Clouds,dailyrainin,SoftwareType,DateUTC
2013-06-10 00:00:00,50.4,43.8,30.25,South,180,0.0,0.0,78,0.00,,---,0.00,VWS V14.01,2013-06-10 07:00:00,
2013-06-10 00:05:00,50.2,43.6,30.25,South,180,0.0,0.0,78,0.00,,---,0.00,VWS V14.01,2013-06-10 07:05:00,
2013-06-10 00:10:00,50.0,43.4,30.25,South,180,0.0,0.0,78,0.00,,---,0.00,VWS V14.01,2013-06-10 07:10:00,
2013-06-10 00:15:00,49.9,43.3,30.25,South,180,0.0,0.0,78,0.00,,---,0.00,VWS V14.01,2013-06-10 07:15:00,
2013-06-10 00:20:00,49.7,43.5,30.25,South,180,0.0,0.7,79,0.00,,---,0.00,VWS V14.01,2013-06-10 07:20:00,
2013-06-10 00:25:00,49.5,43.3,30.25,South,180,0.4,0.4,79,0.00,,---,0.00,VWS V14.01,2013-06-10 07:25:00,
2013-06-10 00:30:00,49.3,43.1,30.25,South,180,0.0,0.0,79,0.00,,---,0.00,VWS V14.01,2013-06-10 07:30:00,
2013-06-10 00:35:00,49.3,43.1,30.25,South,180,0.0,0.0,79,0.00,,---,0.00,VWS V14.01,2013-06-10 07:35:00,
2013-06-10 00:40:00,49.1,42.9,30.24,South,180,0.0,0.0,79,0.00,,---,0.00,VWS V14.01,2013-06-10 07:40:00,
2013-06-10 00:45:00,49.0,43.1,30.24,South,180,0.0,0.0,80,0.00,,---,0.00,VWS V14.01,2013-06-10 07:45:00,
2013-06-10 00:50:00,48.6,42.7,30.24,South,180,0.4,0.4,80,0.00,,---,0.00,VWS V14.01,2013-06-10 07:50:00,
2013-06-10 00:55:00,48.4,42.5,30.25,South,180,0.4,0.4,80,0.00,,---,0.00,VWS V14.01,2013-06-10 07:55:00,
2013-06-10 01:00:00,48.2,42.3,30.25,South,180,0.9,0.9,80,0.00,,---,0.00,VWS V14.01,2013-06-10 08:00:00,
2013-06-10 01:05:00,48.1,42.2,30.25,South,180,0.9,0.9,80,0.00,,---,0.00,VWS V14.01,2013-06-10 08:05:00,
2013-06-10 01:10:00,47.9,42.0,30.25,South,180,0.0,0.0,80,0.00,,---,0.00,VWS V14.01,2013-06-10 08:10:00,
2013-06-10 01:15:00,47.9,42.0,30.25,South,180,0.0,0.0,80,0.00,,---,0.00,VWS V14.01,2013-06-10 08:15:00,
2013-06-10 01:20:00,47.7,41.8,30.25,South,180,0.0,0.0,80,0.00,,---,0.00,VWS V14.01,2013-06-10 08:20:00,
2013-06-10 01:25:00,47.5,41.7,30.25,South,180,0.4,0.7,80,0.00,,---,0.00,VWS V14.01,2013-06-10 08:25:00,
2013-06-10 01:30:00,47.2,41.4,30.25,South,180,0.9,0.9,80,0.00,,---,0.00,VWS V14.01,2013-06-10 08:30:00,
2013-06-10 01:35:00,47.2,41.4,30.25,South,180,0.0,0.2,80,0.00,,---,0.00,VWS V14.01,2013-06-10 08:35:00,
2013-06-10 01:40:00,47.0,41.2,30.25,South,180,0.0,0.0,80,0.00,,---,0.00,VWS V14.01,2013-06-10 08:40:00,
2013-06-10 01:45:00,47.0,41.2,30.25,South,180,0.0,0.0,80,0.00,,---,0.00,VWS V14.01,2013-06-10 08:45:00,
2013-06-10 01:50:00,46.8,41.0,30.25,South,180,0.0,0.0,80,0.00,,---,0.00,VWS V14.01,2013-06-10 08:50:00,
2013-06-10 01:55:00,46.8,41.0,30.24,South,180,0.0,0.0,80,0.00,,---,0.00,VWS V14.01,2013-06-10 08:55:00,
2013-06-10 02:00:00,46.6,40.8,30.25,South,180,0.0,0.0,80,0.00,,---,0.00,VWS V14.01,2013-06-10 09:00:00,
2013-06-10 02:05:00,46.6,40.8,30.24,South,180,0.0,0.0,80,0.00,,---,0.00,VWS V14.01,2013-06-10 09:05:00,
2013-06-10 02:10:00,46.6,41.1,30.25,South,180,0.0,0.0,81,0.00,,---,0.00,VWS V14.01,2013-06-10 09:10:00,
2013-06-10 02:15:00,46.6,41.1,30.24,South,180,0.0,0.0,81,0.00,,---,0.00,VWS V14.01,2013-06-10 09:15:00,
2013-06-10 02:20:00,46.8,41.3,30.24,South,180,0.0,0.0,81,0.00,,---,0.00,VWS V14.01,2013-06-10 09:20:00,
2013-06-10 02:25:00,46.8,41.3,30.24,South,180,0.7,0.7,81,0.00,,---,0.00,VWS V14.01,2013-06-10 09:25:00,
2013-06-10 02:30:00,47.0,41.5,30.24,South,180,0.0,0.0,81,0.00,,---,0.00,VWS V14.01,2013-06-10 09:30:00,
2013-06-10 02:35:00,47.0,41.5,30.23,South,180,0.0,0.0,81,0.00,,---,0.00,VWS V14.01,2013-06-10 09:35:00,
2013-06-10 02:40:00,47.0,41.5,30.23,South,180,0.0,0.0,81,0.00,,---,0.00,VWS V14.01,2013-06-10 09:40:00,
2013-06-10 02:45:00,47.0,41.5,30.24,South,180,0.0,0.0,81,0.00,,---,0.00,VWS V14.01,2013-06-10 09:45:00,
2013-06-10 02:50:00,47.2,41.7,30.24,South,180,0.0,0.0,81,0.00,,---,0.00,VWS V14.01,2013-06-10 09:50:00,
2013-06-10 02:55:00,47.2,41.7,30.23,South,180,0.0,0.2,81,0.00,,---,0.00,VWS V14.01,2013-06-10 09:55:00,
2013-06-10 03:00:00,47.2,41.7,30.23,South,180,0.0,0.0,81,0.00,,---,0.00,VWS V14.01,2013-06-10 10:00:00,
2013-06-10 03:05:00,47.3,41.8,30.23,South,180,0.0,0.0,81,0.00,,---,0.00,VWS V14.01,2013-06-10 10:05:00,
2013-06-10 03:10:00,47.3,41.8,30.23,South,180,0.0,0.0,81,0.00,,---,0.00,VWS V14.01,2013-06-10 10:10:00,
2013-06-10 03:15:00,47.3,41.8,30.23,South,180,0.0,0.0,81,0.00,,---,0.00,VWS V14.01,2013-06-10 10:15:00,
2013-06-10 03:20:00,47.3,41.8,30.23,South,180,0.0,0.0,81,0.00,,---,0.00,VWS V14.01,2013-06-10 10:20:00,
2013-06-10 03:25:00,47.5,42.0,30.23,South,180,0.0,0.0,81,0.00,,---,0.00,VWS V14.01,2013-06-10 10:25:00,
2013-06-10 03:30:00,47.5,42.0,30.22,South,180,0.0,0.0,81,0.00,,---,0.00,VWS V14.01,2013-06-10 10:30:00,
2013-06-10 03:35:00,47.5,42.0,30.22,South,180,0.0,0.0,81,0.00,,---,0.00,VWS V14.01,2013-06-10 10:35:00,
2013-06-10 03:40:00,47.7,42.5,30.22,South,180,0.0,0.0,82,0.00,,---,0.00,VWS V14.01,2013-06-10 10:40:00,
2013-06-10 03:45:00,47.7,42.5,30.22,South,180,0.0,0.0,82,0.00,,---,0.00,VWS V14.01,2013-06-10 10:45:00,
2013-06-10 03:50:00,47.7,42.5,30.22,South,180,0.0,0.0,82,0.00,,---,0.00,VWS V14.01,2013-06-10 10:50:00,
2013-06-10 03:55:00,47.7,42.5,30.22,South,180,0.0,0.0,82,0.00,,---,0.00,VWS V14.01,2013-06-10 10:55:00,
2013-06-10 04:00:00,47.7,42.5,30.22,South,180,0.0,0.0,82,0.00,,---,0.00,VWS V14.01,2013-06-10 11:00:00,
2013-06-10 04:05:00,47.7,42.5,30.22,South,180,0.0,0.0,82,0.00,,---,0.00,VWS V14.01,2013-06-10 11:05:00,
2013-06-10 04:10:00,47.7,42.5,30.22,South,180,0.0,0.0,82,0.00,,---,0.00,VWS V14.01,2013-06-10 11:10:00,
2013-06-10 04:15:00,47.7,42.5,30.22,South,180,0.0,0.0,82,0.00,,---,0.00,VWS V14.01,2013-06-10 11:15:00,
2013-06-10 04:20:00,47.7,42.5,30.21,South,180,0.0,0.0,82,0.00,,---,0.00,VWS V14.01,2013-06-10 11:20:00,
2013-06-10 04:25:00,47.7,42.5,30.21,South,180,0.0,0.0,82,0.00,,---,0.00,VWS V14.01,2013-06-10 11:25:00,
2013-06-10 04:30:00,47.7,42.5,30.21,South,180,0.0,0.0,82,0.00,,---,0.00,VWS V14.01,2013-06-10 11:30:00,
2013-06-10 04:35:00,47.9,42.7,30.21,South,180,0.0,0.0,82,0.00,,---,0.00,VWS V14.01,2013-06-10 11:35:00,
2013-06-10 04:40:00,47.9,43.0,30.21,South,180,0.0,0.0,83,0.00,,---,0.00,VWS V14.01,2013-06-10 11:40:00,
2013-06-10 04:45:00,47.9,43.0,30.21,South,180,0.0,0.0,83,0.00,,---,0.00,VWS V14.01,2013-06-10 11:45:00,
2013-06-10 04:50:00,47.9,43.0,30.21,South,180,0.0,0.0,83,0.00,,---,0.00,VWS V14.01,2013-06-10 11:50:00,
2013-06-10 04:55:00,47.9,43.0,30.21,South,180,0.0,0.0,83,0.00,,---,0.00,VWS V14.01,2013-06-10 11:55:00,
2013-06-10 05:00:00,48.1,43.2,30.21,South,180,0.0,0.0,83,0.00,,---,0.00,VWS V14.01,2013-06-10 12:00:00,
2013-06-10 05:05:00,48.1,43.2,30.21,South,180,0.0,0.0,83,0.00,,---,0.00,VWS V14.01,2013-06-10 12:05:00,
2013-06-10 05:09:00,48.2,43.3,30.21,South,180,0.0,0.0,83,0.00,,---,0.00,VWS V14.01,2013-06-10 12:09:00,
2013-06-10 05:14:00,48.2,43.3,30.21,South,180,0.4,0.4,83,0.00,,---,0.00,VWS V14.01,2013-06-10 12:14:00,
2013-06-10 05:19:00,48.2,43.3,30.21,South,180,0.0,0.0,83,0.00,,---,0.00,VWS V14.01,2013-06-10 12:19:00,
2013-06-10 05:24:00,48.4,43.5,30.21,South,180,0.0,0.0,83,0.00,,---,0.00,VWS V14.01,2013-06-10 12:24:00,
2013-06-10 05:29:00,48.6,43.7,30.21,South,180,0.0,0.0,83,0.00,,---,0.00,VWS V14.01,2013-06-10 12:29:00,
2013-06-10 05:34:00,48.6,43.7,30.21,South,180,0.0,0.0,83,0.00,,---,0.00,VWS V14.01,2013-06-10 12:34:00,
2013-06-10 05:39:00,48.6,43.7,30.21,South,180,0.0,0.0,83,0.00,,---,0.00,VWS V14.01,2013-06-10 12:39:00,
2013-06-10 05:44:00,48.6,43.7,30.21,South,180,0.0,0.0,83,0.00,,---,0.00,VWS V14.01,2013-06-10 12:44:00,
2013-06-10 05:49:00,48.6,43.7,30.21,South,180,0.0,0.0,83,0.00,,---,0.00,VWS V14.01,2013-06-10 12:49:00,
2013-06-10 05:54:00,48.6,43.7,30.21,South,180,0.0,0.0,83,0.00,,---,0.00,VWS V14.01,2013-06-10 12:54:00,
2013-06-10 05:59:00,48.6,44.0,30.21,South,180,0.0,0.0,84,0.00,,---,0.00,VWS V14.01,2013-06-10 12:59:00,
2013-06-10 06:04:00,48.8,43.9,30.21,South,180,0.0,0.2,83,0.00,,---,0.00,VWS V14.01,2013-06-10 13:04:00,
2013-06-10 06:09:00,49.0,44.4,30.21,South,180,0.4,0.7,84,0.00,,---,0.00,VWS V14.01,2013-06-10 13:09:00,
2013-06-10 06:14:00,49.0,44.1,30.21,South,180,0.2,0.4,83,0.00,,---,0.00,VWS V14.01,2013-06-10 13:14:00,
2013-06-10 06:19:00,49.1,44.2,30.21,SSW,202,0.0,0.4,83,0.00,,---,0.00,VWS V14.01,2013-06-10 13:19:00,
2013-06-10 06:24:00,49.3,44.4,30.21,SSW,202,0.0,0.0,83,0.00,,---,0.00,VWS V14.01,2013-06-10 13:24:00,
2013-06-10 06:29:00,49.3,44.4,30.21,SSW,202,0.0,0.0,83,0.00,,---,0.00,VWS V14.01,2013-06-10 13:29:00,
2013-06-10 06:34:00,49.3,44.4,30.20,SSW,202,0.0,0.0,83,0.00,,---,0.00,VWS V14.01,2013-06-10 13:34:00,
2013-06-10 06:39:00,49.5,44.6,30.20,SSW,202,0.0,0.0,83,0.00,,---,0.00,VWS V14.01,2013-06-10 13:39:00,
2013-06-10 06:44:00,49.7,45.1,30.20,SSW,202,0.4,0.7,84,0.00,,---,0.00,VWS V14.01,2013-06-10 13:44:00,
2013-06-10 06:49:00,49.9,45.3,30.20,SSW,202,0.0,0.0,84,0.00,,---,0.00,VWS V14.01,2013-06-10 13:49:00,
2013-06-10 06:54:00,50.0,45.4,30.20,SSW,202,0.0,0.0,84,0.00,,---,0.00,VWS V14.01,2013-06-10 13:54:00,
2013-06-10 06:59:00,50.0,45.0,30.20,SSW,202,0.0,0.0,83,0.00,,---,0.00,VWS V14.01,2013-06-10 13:59:00,
2013-06-10 07:04:00,50.4,45.4,30.20,South,180,0.0,0.0,83,0.00,,---,0.00,VWS V14.01,2013-06-10 14:04:00,
2013-06-10 07:09:00,50.6,45.6,30.20,South,180,0.0,0.0,83,0.00,,---,0.00,VWS V14.01,2013-06-10 14:09:00,
2013-06-10 07:14:00,50.8,45.8,30.20,South,180,0.4,0.4,83,0.00,,---,0.00,VWS V14.01,2013-06-10 14:14:00,
2013-06-10 07:19:00,50.9,45.9,30.20,South,180,0.0,0.0,83,0.00,,---,0.00,VWS V14.01,2013-06-10 14:19:00,
2013-06-10 07:24:00,51.1,46.1,30.20,South,180,0.4,0.4,83,0.00,,---,0.00,VWS V14.01,2013-06-10 14:24:00,
2013-06-10 07:29:00,51.5,46.5,30.20,South,180,0.0,0.2,83,0.00,,---,0.00,VWS V14.01,2013-06-10 14:29:00,
2013-06-10 07:34:00,51.7,46.4,30.20,South,180,0.9,1.1,82,0.00,,---,0.00,VWS V14.01,2013-06-10 14:34:00,
2013-06-10 07:39:00,51.8,46.5,30.20,South,180,0.9,0.9,82,0.00,,---,0.00,VWS V14.01,2013-06-10 14:39:00,
2013-06-10 07:44:00,52.2,46.9,30.20,South,180,1.1,1.3,82,0.00,,---,0.00,VWS V14.01,2013-06-10 14:44:00,
2013-06-10 07:49:00,52.2,46.9,30.20,South,180,0.0,0.0,82,0.00,,---,0.00,VWS V14.01,2013-06-10 14:49:00,
2013-06-10 07:54:00,52.6,47.3,30.20,South,180,0.7,1.3,82,0.00,,---,0.00,VWS V14.01,2013-06-10 14:54:00,
2013-06-10 07:59:00,52.7,46.7,30.20,South,180,0.2,0.2,80,0.00,,---,0.00,VWS V14.01,2013-06-10 14:59:00,
2013-06-10 08:04:00,52.9,46.6,30.20,South,180,0.0,0.0,79,0.00,,---,0.00,VWS V14.01,2013-06-10 15:04:00,
2013-06-10 08:09:00,52.7,46.4,30.20,South,180,1.3,2.0,79,0.00,,---,0.00,VWS V14.01,2013-06-10 15:09:00,
2013-06-10 08:14:00,52.7,46.0,30.20,South,180,2.2,2.2,78,0.00,,---,0.00,VWS V14.01,2013-06-10 15:14:00,
2013-06-10 08:19:00,52.7,46.4,30.20,South,180,2.0,2.0,79,0.00,,---,0.00,VWS V14.01,2013-06-10 15:19:00,
2013-06-10 08:24:00,52.9,46.2,30.20,South,180,0.9,0.9,78,0.00,,---,0.00,VWS V14.01,2013-06-10 15:24:00,
2013-06-10 08:29:00,52.9,46.2,30.20,South,180,1.6,1.6,78,0.00,,---,0.00,VWS V14.01,2013-06-10 15:29:00,
2013-06-10 08:34:00,53.1,46.8,30.20,South,180,0.4,0.4,79,0.00,,---,0.00,VWS V14.01,2013-06-10 15:34:00,
2013-06-10 08:39:00,53.5,47.2,30.20,South,180,1.6,1.6,79,0.00,,---,0.00,VWS V14.01,2013-06-10 15:39:00,
2013-06-10 08:44:00,54.0,47.3,30.20,South,180,0.0,1.3,78,0.00,,---,0.00,VWS V14.01,2013-06-10 15:44:00,
2013-06-10 08:49:00,54.2,47.5,30.20,South,180,0.0,0.0,78,0.00,,---,0.00,VWS V14.01,2013-06-10 15:49:00,
2013-06-10 08:54:00,54.7,48.3,30.19,South,180,0.9,0.9,79,0.00,,---,0.00,VWS V14.01,2013-06-10 15:54:00,
2013-06-10 08:59:00,55.1,48.4,30.20,South,180,0.9,1.1,78,0.00,,---,0.00,VWS V14.01,2013-06-10 15:59:00,
2013-06-10 09:04:00,55.6,48.5,30.20,South,180,2.7,3.4,77,0.00,,---,0.00,VWS V14.01,2013-06-10 16:04:00,
2013-06-10 09:09:00,55.8,48.4,30.20,South,180,1.8,1.8,76,0.00,,---,0.00,VWS V14.01,2013-06-10 16:09:00,
2013-06-10 09:14:00,55.8,48.0,30.20,South,180,0.4,0.4,75,0.00,,---,0.00,VWS V14.01,2013-06-10 16:14:00,
2013-06-10 09:19:00,55.8,47.7,30.20,South,180,1.1,1.1,74,0.00,,---,0.00,VWS V14.01,2013-06-10 16:19:00,
2013-06-10 09:24:00,55.4,47.3,30.20,South,180,2.2,2.2,74,0.00,,---,0.00,VWS V14.01,2013-06-10 16:24:00,
2013-06-10 09:29:00,55.8,48.0,30.19,South,180,2.5,2.5,75,0.00,,---,0.00,VWS V14.01,2013-06-10 16:29:00,
2013-06-10 09:34:00,56.0,47.5,30.19,South,180,1.8,1.8,73,0.00,,---,0.00,VWS V14.01,2013-06-10 16:34:00,
2013-06-10 09:39:00,56.0,47.8,30.19,South,180,0.2,1.6,74,0.00,,---,0.00,VWS V14.01,2013-06-10 16:39:00,
2013-06-10 09:44:00,55.8,47.3,30.19,South,180,3.6,3.6,73,0.00,,---,0.00,VWS V14.01,2013-06-10 16:44:00,
2013-06-10 09:49:00,56.3,48.1,30.19,South,180,0.4,0.4,74,0.00,,---,0.00,VWS V14.01,2013-06-10 16:49:00,
2013-06-10 09:54:00,56.7,48.2,30.19,South,180,1.1,1.1,73,0.00,,---,0.00,VWS V14.01,2013-06-10 16:54:00,
2013-06-10 09:59:00,57.2,48.6,30.19,South,180,2.7,2.7,73,0.00,,---,0.00,VWS V14.01,2013-06-10 16:59:00,
2013-06-10 10:04:00,57.4,48.8,30.19,South,180,0.2,0.2,73,0.00,,---,0.00,VWS V14.01,2013-06-10 17:04:00,
2013-06-10 10:09:00,57.6,49.0,30.19,South,180,0.0,0.0,73,0.00,,---,0.00,VWS V14.01,2013-06-10 17:09:00,
2013-06-10 10:14:00,57.8,48.8,30.19,South,180,0.0,0.0,72,0.00,,---,0.00,VWS V14.01,2013-06-10 17:14:00,
2013-06-10 10:19:00,57.4,47.7,30.18,South,180,4.0,4.0,70,0.00,,---,0.00,VWS V14.01,2013-06-10 17:19:00,
2013-06-10 10:24:00,57.2,47.5,30.18,South,180,0.4,0.4,70,0.00,,---,0.00,VWS V14.01,2013-06-10 17:24:00,
2013-06-10 10:29:00,57.4,48.1,30.18,South,180,1.8,1.8,71,0.00,,---,0.00,VWS V14.01,2013-06-10 17:29:00,
2013-06-10 10:34:00,57.8,48.5,30.18,South,180,0.0,0.0,71,0.00,,---,0.00,VWS V14.01,2013-06-10 17:34:00,
2013-06-10 10:39:00,58.1,48.4,30.18,NE,45,1.8,1.8,70,0.00,,---,0.00,VWS V14.01,2013-06-10 17:39:00,
2013-06-10 10:44:00,58.5,48.8,30.18,East,90,2.0,2.0,70,0.00,,---,0.00,VWS V14.01,2013-06-10 17:44:00,
2013-06-10 10:49:00,58.5,48.0,30.18,NE,45,2.5,2.5,68,0.00,,---,0.00,VWS V14.01,2013-06-10 17:49:00,
2013-06-10 10:54:00,58.5,48.4,30.18,SE,135,0.4,0.4,69,0.00,,---,0.00,VWS V14.01,2013-06-10 17:54:00,
2013-06-10 10:59:00,58.7,48.6,30.18,South,180,0.4,0.4,69,0.00,,---,0.00,VWS V14.01,2013-06-10 17:59:00,
2013-06-10 11:04:00,58.9,48.8,30.18,ESE,112,0.9,0.9,69,0.00,,---,0.00,VWS V14.01,2013-06-10 18:04:00,
2013-06-10 11:09:00,58.9,48.8,30.18,SE,135,0.0,0.0,69,0.00,,---,0.00,VWS V14.01,2013-06-10 18:09:00,
2013-06-10 11:14:00,59.2,49.0,30.18,ENE,68,0.4,0.4,69,0.00,,---,0.00,VWS V14.01,2013-06-10 18:14:00,
2013-06-10 11:19:00,59.6,49.0,30.18,North,0,1.8,1.8,68,0.00,,---,0.00,VWS V14.01,2013-06-10 18:19:00,
2013-06-10 11:24:00,59.8,49.2,30.18,ENE,68,2.5,2.5,68,0.00,,---,0.00,VWS V14.01,2013-06-10 18:24:00,
2013-06-10 11:29:00,59.6,48.6,30.18,SE,135,0.9,0.9,67,0.00,,---,0.00,VWS V14.01,2013-06-10 18:29:00,
2013-06-10 11:34:00,59.6,49.0,30.18,SE,135,0.7,0.7,68,0.00,,---,0.00,VWS V14.01,2013-06-10 18:34:00,
2013-06-10 11:39:00,59.9,49.7,30.18,South,180,0.0,0.0,69,0.00,,---,0.00,VWS V14.01,2013-06-10 18:39:00,
2013-06-10 11:44:00,60.1,49.5,30.18,South,180,0.4,0.4,68,0.00,,---,0.00,VWS V14.01,2013-06-10 18:44:00,
2013-06-10 11:49:00,60.3,49.3,30.18,WNW,292,1.8,1.8,67,0.00,,---,0.00,VWS V14.01,2013-06-10 18:49:00,
2013-06-10 11:54:00,60.1,47.9,30.18,ESE,112,0.7,0.7,64,0.00,,---,0.00,VWS V14.01,2013-06-10 18:54:00,
2013-06-10 11:59:00,60.1,48.7,30.18,SE,135,0.2,0.2,66,0.00,,---,0.00,VWS V14.01,2013-06-10 18:59:00,
2013-06-10 12:04:00,60.5,49.5,30.18,South,180,1.1,1.1,67,0.00,,---,0.00,VWS V14.01,2013-06-10 19:04:00,
2013-06-10 12:09:00,60.7,48.9,30.18,ENE,68,1.3,1.3,65,0.00,,---,0.00,VWS V14.01,2013-06-10 19:09:00,
2013-06-10 12:14:00,60.7,49.3,30.18,South,180,0.7,0.7,66,0.00,,---,0.00,VWS V14.01,2013-06-10 19:14:00,
2013-06-10 12:19:00,60.8,49.4,30.17,South,180,0.9,0.9,66,0.00,,---,0.00,VWS V14.01,2013-06-10 19:19:00,
2013-06-10 12:24:00,60.7,48.9,30.17,South,180,0.9,0.9,65,0.00,,---,0.00,VWS V14.01,2013-06-10 19:24:00,
2013-06-10 12:29:00,60.5,48.7,30.17,South,180,0.2,0.2,65,0.00,,---,0.00,VWS V14.01,2013-06-10 19:29:00,
2013-06-10 12:34:00,60.1,48.3,30.17,South,180,0.4,0.4,65,0.00,,---,0.00,VWS V14.01,2013-06-10 19:34:00,
2013-06-10 12:39:00,60.3,48.9,30.17,South,180,1.1,1.1,66,0.00,,---,0.00,VWS V14.01,2013-06-10 19:39:00,
2013-06-10 12:44:00,60.7,49.7,30.17,South,180,0.4,0.4,67,0.00,,---,0.00,VWS V14.01,2013-06-10 19:44:00,
2013-06-10 12:49:00,61.2,49.8,30.17,South,180,0.4,0.4,66,0.00,,---,0.00,VWS V14.01,2013-06-10 19:49:00,
2013-06-10 12:54:00,60.8,49.0,30.17,South,180,0.0,0.0,65,0.00,,---,0.00,VWS V14.01,2013-06-10 19:54:00,
2013-06-10 12:59:00,60.8,49.0,30.17,South,180,1.3,1.3,65,0.00,,---,0.00,VWS V14.01,2013-06-10 19:59:00,
2013-06-10 13:04:00,60.8,49.0,30.17,South,180,0.9,0.9,65,0.00,,---,0.00,VWS V14.01,2013-06-10 20:04:00,
2013-06-10 13:08:00,61.2,49.8,30.17,South,180,1.6,1.6,66,0.00,,---,0.00,VWS V14.01,2013-06-10 20:08:00,
2013-06-10 13:13:00,61.6,49.7,30.17,South,180,1.1,2.2,65,0.00,,---,0.00,VWS V14.01,2013-06-10 20:13:00,
2013-06-10 13:18:00,61.6,49.7,30.17,South,180,0.4,0.4,65,0.00,,---,0.00,VWS V14.01,2013-06-10 20:18:00,
2013-06-10 13:23:00,62.1,50.2,30.17,South,180,0.0,0.9,65,0.00,,---,0.00,VWS V14.01,2013-06-10 20:23:00,
2013-06-10 13:28:00,62.3,50.0,30.17,South,180,0.4,0.4,64,0.00,,---,0.00,VWS V14.01,2013-06-10 20:28:00,
2013-06-10 13:33:00,62.6,49.8,30.17,North,0,2.5,2.5,63,0.00,,---,0.00,VWS V14.01,2013-06-10 20:33:00,
2013-06-10 13:38:00,62.8,49.2,30.16,South,180,1.1,1.1,61,0.00,,---,0.00,VWS V14.01,2013-06-10 20:38:00,
2013-06-10 13:43:00,62.5,49.8,30.16,South,180,0.0,0.4,63,0.00,,---,0.00,VWS V14.01,2013-06-10 20:43:00,
2013-06-10 13:48:00,62.8,50.5,30.16,South,180,1.3,1.3,64,0.00,,---,0.00,VWS V14.01,2013-06-10 20:48:00,
2013-06-10 13:53:00,63.0,49.4,30.16,South,180,0.7,0.7,61,0.00,,---,0.00,VWS V14.01,2013-06-10 20:53:00,
2013-06-10 13:58:00,63.2,50.4,30.16,South,180,0.7,0.7,63,0.00,,---,0.00,VWS V14.01,2013-06-10 20:58:00,
2013-06-10 14:03:00,63.5,50.3,30.16,South,180,1.1,1.1,62,0.00,,---,0.00,VWS V14.01,2013-06-10 21:03:00,
2013-06-10 14:08:00,63.9,50.6,30.16,South,180,0.4,1.3,62,0.00,,---,0.00,VWS V14.01,2013-06-10 21:08:00,
2013-06-10 14:13:00,64.4,50.7,30.16,South,180,2.5,2.5,61,0.00,,---,0.00,VWS V14.01,2013-06-10 21:13:00,
2013-06-10 14:18:00,65.2,51.4,30.16,South,180,2.5,2.5,61,0.00,,---,0.00,VWS V14.01,2013-06-10 21:18:00,
2013-06-10 14:23:00,66.1,50.0,30.15,ENE,68,2.5,2.5,56,0.00,,---,0.00,VWS V14.01,2013-06-10 21:23:00,
2013-06-10 14:28:00,66.4,50.7,30.15,South,180,0.9,1.1,57,0.00,,---,0.00,VWS V14.01,2013-06-10 21:28:00,
2013-06-10 14:33:00,65.3,47.2,30.15,NW,315,1.6,1.8,52,0.00,,---,0.00,VWS V14.01,2013-06-10 21:33:00,
2013-06-10 14:38:00,64.8,47.8,30.15,NE,45,1.1,1.1,54,0.00,,---,0.00,VWS V14.01,2013-06-10 21:38:00,
2013-06-10 14:43:00,65.2,48.6,30.15,NE,45,1.8,1.8,55,0.00,,---,0.00,VWS V14.01,2013-06-10 21:43:00,
2013-06-10 14:48:00,65.3,46.2,30.15,South,180,1.3,1.3,50,0.00,,---,0.00,VWS V14.01,2013-06-10 21:48:00,
2013-06-10 14:53:00,64.8,47.3,30.15,East,90,2.0,3.6,53,0.00,,---,0.00,VWS V14.01,2013-06-10 21:53:00,
2013-06-10 14:58:00,64.8,46.8,30.15,WNW,292,1.1,1.1,52,0.00,,---,0.00,VWS V14.01,2013-06-10 21:58:00,
2013-06-10 15:03:00,65.2,48.6,30.15,South,180,1.1,1.1,55,0.00,,---,0.00,VWS V14.01,2013-06-10 22:03:00,
2013-06-10 15:08:00,66.2,49.1,30.15,South,180,3.1,3.1,54,0.00,,---,0.00,VWS V14.01,2013-06-10 22:08:00,
2013-06-10 15:13:00,67.5,48.2,30.15,South,180,1.8,2.5,50,0.00,,---,0.00,VWS V14.01,2013-06-10 22:13:00,
2013-06-10 15:18:00,67.9,49.7,30.14,South,180,1.8,1.8,52,0.00,,---,0.00,VWS V14.01,2013-06-10 22:18:00,
2013-06-10 15:23:00,68.4,50.1,30.14,South,180,1.1,1.8,52,0.00,,---,0.00,VWS V14.01,2013-06-10 22:23:00,
2013-06-10 15:28:00,68.2,47.8,30.14,South,180,2.2,2.5,48,0.00,,---,0.00,VWS V14.01,2013-06-10 22:28:00,
2013-06-10 15:33:00,67.7,46.8,30.14,South,180,1.8,1.8,47,0.00,,---,0.00,VWS V14.01,2013-06-10 22:33:00,
2013-06-10 15:38:00,66.8,47.0,30.14,SSW,202,0.2,0.7,49,0.00,,---,0.00,VWS V14.01,2013-06-10 22:38:00,
2013-06-10 15:43:00,66.4,47.7,30.14,South,180,2.0,2.0,51,0.00,,---,0.00,VWS V14.01,2013-06-10 22:43:00,
2013-06-10 15:48:00,66.4,47.7,30.14,South,180,2.5,2.5,51,0.00,,---,0.00,VWS V14.01,2013-06-10 22:48:00,
2013-06-10 15:53:00,66.4,48.8,30.14,South,180,0.0,0.0,53,0.00,,---,0.00,VWS V14.01,2013-06-10 22:53:00,
2013-06-10 15:58:00,66.4,48.3,30.14,South,180,0.0,0.2,52,0.00,,---,0.00,VWS V14.01,2013-06-10 22:58:00,
2013-06-10 16:03:00,66.2,48.1,30.14,South,180,0.4,0.4,52,0.00,,---,0.00,VWS V14.01,2013-06-10 23:03:00,
2013-06-10 16:08:00,66.2,48.6,30.14,WSW,248,1.1,1.1,53,0.00,,---,0.00,VWS V14.01,2013-06-10 23:08:00,
2013-06-10 16:13:00,65.9,47.8,30.14,South,180,0.0,0.0,52,0.00,,---,0.00,VWS V14.01,2013-06-10 23:13:00,
2013-06-10 16:18:00,65.9,47.8,30.14,East,90,0.4,0.4,52,0.00,,---,0.00,VWS V14.01,2013-06-10 23:18:00,
2013-06-10 16:23:00,65.5,48.4,30.14,SE,135,0.0,1.1,54,0.00,,---,0.00,VWS V14.01,2013-06-10 23:23:00,
2013-06-10 16:28:00,65.7,47.6,30.14,South,180,1.3,1.3,52,0.00,,---,0.00,VWS V14.01,2013-06-10 23:28:00,
2013-06-10 16:33:00,65.5,47.9,30.13,South,180,0.9,0.9,53,0.00,,---,0.00,VWS V14.01,2013-06-10 23:33:00,
2013-06-10 16:38:00,65.3,47.2,30.13,South,180,0.4,0.4,52,0.00,,---,0.00,VWS V14.01,2013-06-10 23:38:00,
2013-06-10 16:43:00,65.3,47.8,30.13,South,180,0.4,0.4,53,0.00,,---,0.00,VWS V14.01,2013-06-10 23:43:00,
2013-06-10 16:48:00,65.3,46.7,30.13,South,180,1.3,1.3,51,0.00,,---,0.00,VWS V14.01,2013-06-10 23:48:00,
2013-06-10 16:53:00,65.3,47.2,30.13,South,180,0.4,0.4,52,0.00,,---,0.00,VWS V14.01,2013-06-10 23:53:00,
2013-06-10 16:58:00,65.7,48.1,30.12,South,180,0.9,0.9,53,0.00,,---,0.00,VWS V14.01,2013-06-10 23:58:00,
2013-06-10 17:03:00,65.9,48.3,30.12,South,180,3.4,3.4,53,0.00,,---,0.00,VWS V14.01,2013-06-11 00:03:00,
2013-06-10 17:08:00,66.1,48.0,30.12,South,180,2.7,2.7,52,0.00,,---,0.00,VWS V14.01,2013-06-11 00:08:00,
2013-06-10 17:13:00,66.1,48.0,30.12,South,180,2.0,2.0,52,0.00,,---,0.00,VWS V14.01,2013-06-11 00:13:00,
2013-06-10 17:18:00,66.4,48.8,30.12,South,180,2.9,2.9,53,0.00,,---,0.00,VWS V14.01,2013-06-11 00:18:00,
2013-06-10 17:23:00,66.4,48.8,30.12,South,180,2.5,2.5,53,0.00,,---,0.00,VWS V14.01,2013-06-11 00:23:00,
2013-06-10 17:28:00,67.0,48.8,30.12,South,180,1.8,1.8,52,0.00,,---,0.00,VWS V14.01,2013-06-11 00:28:00,
2013-06-10 17:33:00,67.0,49.3,30.12,South,180,1.1,1.1,53,0.00,,---,0.00,VWS V14.01,2013-06-11 00:33:00,
2013-06-10 17:38:00,67.0,48.3,30.12,North,0,0.2,1.3,51,0.00,,---,0.00,VWS V14.01,2013-06-11 00:38:00,
2013-06-10 17:43:00,67.0,48.8,30.12,SE,135,2.7,2.7,52,0.00,,---,0.00,VWS V14.01,2013-06-11 00:43:00,
2013-06-10 17:48:00,67.0,48.8,30.12,South,180,3.6,3.6,52,0.00,,---,0.00,VWS V14.01,2013-06-11 00:48:00,
2013-06-10 17:53:00,67.1,48.9,30.11,South,180,3.1,3.1,52,0.00,,---,0.00,VWS V14.01,2013-06-11 00:53:00,
2013-06-10 17:58:00,67.0,48.8,30.12,South,180,2.7,2.7,52,0.00,,---,0.00,VWS V14.01,2013-06-11 00:58:00,
2013-06-10 18:03:00,66.8,48.6,30.11,South,180,3.1,3.1,52,0.00,,---,0.00,VWS V14.01,2013-06-11 01:03:00,
2013-06-10 18:08:00,66.6,48.4,30.11,South,180,0.4,2.0,52,0.00,,---,0.00,VWS V14.01,2013-06-11 01:08:00,
2013-06-10 18:13:00,66.6,49.0,30.11,South,180,1.3,2.0,53,0.00,,---,0.00,VWS V14.01,2013-06-11 01:13:00,
2013-06-10 18:18:00,66.6,48.4,30.11,South,180,1.1,1.1,52,0.00,,---,0.00,VWS V14.01,2013-06-11 01:18:00,
2013-06-10 18:23:00,66.4,47.7,30.11,South,180,0.2,1.8,51,0.00,,---,0.00,VWS V14.01,2013-06-11 01:23:00,
2013-06-10 18:28:00,66.2,48.1,30.11,East,90,0.4,0.4,52,0.00,,---,0.00,VWS V14.01,2013-06-11 01:28:00,
2013-06-10 18:33:00,65.9,47.3,30.11,NW,315,0.4,0.4,51,0.00,,---,0.00,VWS V14.01,2013-06-11 01:33:00,
2013-06-10 18:38:00,65.5,47.9,30.11,South,180,0.0,0.0,53,0.00,,---,0.00,VWS V14.01,2013-06-11 01:38:00,
2013-06-10 18:43:00,65.5,48.4,30.11,South,180,0.7,0.7,54,0.00,,---,0.00,VWS V14.01,2013-06-11 01:43:00,
2013-06-10 18:48:00,65.3,49.2,30.11,South,180,0.4,0.4,56,0.00,,---,0.00,VWS V14.01,2013-06-11 01:48:00,
2013-06-10 18:53:00,65.0,48.9,30.11,South,180,1.8,1.8,56,0.00,,---,0.00,VWS V14.01,2013-06-11 01:53:00,
2013-06-10 18:58:00,64.8,49.2,30.11,South,180,1.1,1.1,57,0.00,,---,0.00,VWS V14.01,2013-06-11 01:58:00,
2013-06-10 19:03:00,64.4,49.3,30.11,South,180,0.4,0.4,58,0.00,,---,0.00,VWS V14.01,2013-06-11 02:03:00,
2013-06-10 19:08:00,64.1,49.5,30.11,South,180,0.0,0.2,59,0.00,,---,0.00,VWS V14.01,2013-06-11 02:08:00,
2013-06-10 19:13:00,63.7,49.1,30.12,South,180,0.0,0.0,59,0.00,,---,0.00,VWS V14.01,2013-06-11 02:13:00,
2013-06-10 19:18:00,63.5,49.4,30.12,South,180,0.0,0.0,60,0.00,,---,0.00,VWS V14.01,2013-06-11 02:18:00,
2013-06-10 19:23:00,63.4,49.3,30.11,South,180,0.0,0.0,60,0.00,,---,0.00,VWS V14.01,2013-06-11 02:23:00,
2013-06-10 19:28:00,63.0,48.9,30.11,South,180,0.0,0.0,60,0.00,,---,0.00,VWS V14.01,2013-06-11 02:28:00,
2013-06-10 19:33:00,63.0,49.4,30.11,South,180,0.0,0.0,61,0.00,,---,0.00,VWS V14.01,2013-06-11 02:33:00,
2013-06-10 19:38:00,62.6,49.4,30.11,South,180,0.0,0.0,62,0.00,,---,0.00,VWS V14.01,2013-06-11 02:38:00,
2013-06-10 19:43:00,62.5,49.3,30.11,South,180,0.0,0.0,62,0.00,,---,0.00,VWS V14.01,2013-06-11 02:43:00,
2013-06-10 19:48:00,62.3,49.6,30.12,South,180,0.0,0.0,63,0.00,,---,0.00,VWS V14.01,2013-06-11 02:48:00,
2013-06-10 19:53:00,62.1,49.4,30.12,South,180,0.0,0.0,63,0.00,,---,0.00,VWS V14.01,2013-06-11 02:53:00,
2013-06-10 19:58:00,61.9,50.0,30.12,East,90,1.8,1.8,65,0.00,,---,0.00,VWS V14.01,2013-06-11 02:58:00,
2013-06-10 20:03:00,61.6,49.7,30.12,South,180,0.0,0.0,65,0.00,,---,0.00,VWS V14.01,2013-06-11 03:03:00,
2013-06-10 20:08:00,61.4,49.5,30.12,SSE,158,1.3,1.3,65,0.00,,---,0.00,VWS V14.01,2013-06-11 03:08:00,
2013-06-10 20:13:00,61.2,49.3,30.12,ESE,112,0.9,0.9,65,0.00,,---,0.00,VWS V14.01,2013-06-11 03:13:00,
2013-06-10 20:18:00,61.2,49.3,30.12,SE,135,0.4,0.4,65,0.00,,---,0.00,VWS V14.01,2013-06-11 03:18:00,
2013-06-10 20:23:00,61.2,49.3,30.12,ESE,112,0.9,0.9,65,0.00,,---,0.00,VWS V14.01,2013-06-11 03:23:00,
2013-06-10 20:28:00,60.8,48.6,30.13,South,180,0.2,0.2,64,0.00,,---,0.00,VWS V14.01,2013-06-11 03:28:00,
2013-06-10 20:33:00,60.5,48.7,30.13,SE,135,3.4,3.4,65,0.00,,---,0.00,VWS V14.01,2013-06-11 03:33:00,
2013-06-10 20:38:00,60.1,47.9,30.13,South,180,0.4,0.4,64,0.00,,---,0.00,VWS V14.01,2013-06-11 03:38:00,
2013-06-10 20:43:00,59.8,47.6,30.13,South,180,0.0,0.0,64,0.00,,---,0.00,VWS V14.01,2013-06-11 03:43:00,
2013-06-10 20:48:00,59.4,47.2,30.13,South,180,0.7,0.7,64,0.00,,---,0.00,VWS V14.01,2013-06-11 03:48:00,
2013-06-10 20:53:00,59.0,47.3,30.13,South,180,0.0,0.2,65,0.00,,---,0.00,VWS V14.01,2013-06-11 03:53:00,
2013-06-10 20:57:00,58.7,47.0,30.14,South,180,0.0,0.0,65,0.00,,---,0.00,VWS V14.01,2013-06-11 03:57:00,
2013-06-10 21:01:00,58.5,46.8,30.14,South,180,0.0,0.0,65,0.00,,---,0.00,VWS V14.01,2013-06-11 04:01:00,
2013-06-10 21:06:00,58.1,46.4,30.14,South,180,0.0,0.0,65,0.00,,---,0.00,VWS V14.01,2013-06-11 04:06:00,
2013-06-10 21:11:00,57.8,46.5,30.14,South,180,0.0,0.0,66,0.00,,---,0.00,VWS V14.01,2013-06-11 04:11:00,
2013-06-10 21:16:00,57.6,46.3,30.14,South,180,0.0,0.0,66,0.00,,---,0.00,VWS V14.01,2013-06-11 04:16:00,
2013-06-10 21:21:00,57.2,46.4,30.15,South,180,0.0,0.0,67,0.00,,---,0.00,VWS V14.01,2013-06-11 04:21:00,
2013-06-10 21:26:00,56.9,46.5,30.15,SE,135,0.0,0.0,68,0.00,,---,0.00,VWS V14.01,2013-06-11 04:26:00,
2013-06-10 21:31:00,56.5,46.1,30.16,ENE,68,0.2,0.2,68,0.00,,---,0.00,VWS V14.01,2013-06-11 04:31:00,
2013-06-10 21:36:00,56.3,45.9,30.16,South,180,0.0,0.0,68,0.00,,---,0.00,VWS V14.01,2013-06-11 04:36:00,
2013-06-10 21:41:00,56.2,46.2,30.16,South,180,0.4,0.4,69,0.00,,---,0.00,VWS V14.01,2013-06-11 04:41:00,
2013-06-10 21:46:00,55.8,45.8,30.16,South,180,0.0,0.0,69,0.00,,---,0.00,VWS V14.01,2013-06-11 04:46:00,
2013-06-10 21:51:00,55.6,45.6,30.16,South,180,0.0,0.0,69,0.00,,---,0.00,VWS V14.01,2013-06-11 04:51:00,
2013-06-10 21:56:00,55.4,45.4,30.16,South,180,0.0,0.0,69,0.00,,---,0.00,VWS V14.01,2013-06-11 04:56:00,
2013-06-10 22:01:00,54.9,45.3,30.17,NNW,338,0.0,0.0,70,0.00,,---,0.00,VWS V14.01,2013-06-11 05:01:00,
2013-06-10 22:05:00,54.4,45.2,30.17,ESE,112,1.1,1.1,71,0.00,,---,0.00,VWS V14.01,2013-06-11 05:05:00,
2013-06-10 22:10:00,54.4,45.2,30.17,ESE,112,0.0,0.0,71,0.00,,---,0.00,VWS V14.01,2013-06-11 05:10:00,
2013-06-10 22:15:00,54.0,45.2,30.17,ESE,112,0.0,0.0,72,0.00,,---,0.00,VWS V14.01,2013-06-11 05:15:00,
2013-06-10 22:20:00,53.8,45.0,30.17,ENE,68,0.0,0.0,72,0.00,,---,0.00,VWS V14.01,2013-06-11 05:20:00,
2013-06-10 22:25:00,53.6,45.2,30.17,NNE,22,1.8,2.7,73,0.00,,---,0.00,VWS V14.01,2013-06-11 05:25:00,
2013-06-10 22:30:00,53.1,44.3,30.17,NNE,22,0.4,0.7,72,0.00,,---,0.00,VWS V14.01,2013-06-11 05:30:00,
2013-06-10 22:35:00,52.9,44.1,30.17,ENE,68,0.0,0.0,72,0.00,,---,0.00,VWS V14.01,2013-06-11 05:35:00,
2013-06-10 22:40:00,52.9,44.5,30.17,NE,45,0.0,0.0,73,0.00,,---,0.00,VWS V14.01,2013-06-11 05:40:00,
2013-06-10 22:45:00,52.6,44.6,30.17,ENE,68,0.9,1.1,74,0.00,,---,0.00,VWS V14.01,2013-06-11 05:45:00,
2013-06-10 22:50:00,52.4,44.4,30.17,NNE,22,0.7,0.7,74,0.00,,---,0.00,VWS V14.01,2013-06-11 05:50:00,
2013-06-10 22:55:00,52.2,44.2,30.17,North,0,1.1,1.1,74,0.00,,---,0.00,VWS V14.01,2013-06-11 05:55:00,
2013-06-10 23:00:00,51.8,44.1,30.17,ESE,112,0.0,0.0,75,0.00,,---,0.00,VWS V14.01,2013-06-11 06:00:00,
2013-06-10 23:05:00,51.7,44.0,30.17,ENE,68,0.0,0.2,75,0.00,,---,0.00,VWS V14.01,2013-06-11 06:05:00,
2013-06-10 23:10:00,51.7,44.0,30.17,SSE,158,0.2,0.4,75,0.00,,---,0.00,VWS V14.01,2013-06-11 06:10:00,
2013-06-10 23:15:00,51.7,44.4,30.17,ENE,68,0.0,0.0,76,0.00,,---,0.00,VWS V14.01,2013-06-11 06:15:00,
2013-06-10 23:20:00,51.5,44.2,30.17,SSE,158,0.0,0.0,76,0.00,,---,0.00,VWS V14.01,2013-06-11 06:20:00,
2013-06-10 23:25:00,51.7,44.4,30.17,ESE,112,0.4,0.4,76,0.00,,---,0.00,VWS V14.01,2013-06-11 06:25:00,
2013-06-10 23:30:00,51.8,44.5,30.17,ESE,112,0.0,0.4,76,0.00,,---,0.00,VWS V14.01,2013-06-11 06:30:00,
2013-06-10 23:35:00,52.0,44.7,30.18,ENE,68,0.9,0.9,76,0.00,,---,0.00,VWS V14.01,2013-06-11 06:35:00,
2013-06-10 23:40:00,52.0,44.7,30.18,NNE,22,0.0,0.0,76,0.00,,---,0.00,VWS V14.01,2013-06-11 06:40:00,
2013-06-10 23:45:00,52.0,44.7,30.18,NNE,22,0.4,0.7,76,0.00,,---,0.00,VWS V14.01,2013-06-11 06:45:00,
2013-06-10 23:50:00,52.2,44.9,30.18,NE,45,0.0,0.0,76,0.00,,---,0.00,VWS V14.01,2013-06-11 06:50:00,
2013-06-10 23:55:00,52.0,44.7,30.18,NE,45,0.0,0.0,76,0.00,,---,0.00,VWS V14.01,2013-06-11 06:55:00,